createdAt,value
2023-10-23T00:01:34.644Z,8.77
2023-10-23T00:04:01.870Z,8.76
2023-10-23T00:06:28.954Z,8.75
2023-10-23T00:08:55.774Z,8.72
2023-10-23T00:11:24.863Z,8.68
2023-10-23T00:13:51.955Z,8.70
2023-10-23T00:16:19.838Z,8.74
2023-10-23T00:18:47.307Z,8.80
2023-10-23T00:21:14.511Z,8.90
2023-10-23T00:23:41.424Z,8.99
2023-10-23T00:26:10.434Z,9.07
2023-10-23T00:28:37.711Z,9.15
2023-10-23T00:31:04.573Z,9.20
2023-10-23T00:33:31.617Z,9.25
2023-10-23T00:35:58.716Z,9.27
2023-10-23T00:38:25.616Z,9.27
2023-10-23T00:40:52.472Z,9.25
2023-10-23T00:43:21.953Z,9.23
2023-10-23T00:45:52.525Z,9.23
2023-10-23T00:48:21.685Z,9.21
2023-10-23T00:50:50.165Z,9.16
2023-10-23T00:53:19.709Z,9.11
2023-10-23T00:55:48.012Z,9.05
2023-10-23T00:58:16.207Z,9.03
2023-10-23T01:00:45.578Z,9.02
2023-10-23T01:03:13.461Z,9.03
2023-10-23T01:05:40.929Z,9.06
2023-10-23T01:08:08.122Z,9.10
2023-10-23T01:10:35.354Z,9.13
2023-10-23T01:13:08.176Z,9.17
2023-10-23T01:15:36.134Z,9.18
2023-10-23T01:18:04.281Z,9.18
2023-10-23T01:20:32.211Z,9.21
2023-10-23T01:23:00.910Z,9.23
2023-10-23T01:25:29.357Z,9.25
2023-10-23T01:27:56.725Z,9.29
2023-10-23T01:30:23.625Z,9.30
2023-10-23T01:32:50.645Z,9.28
2023-10-23T01:35:17.817Z,9.23
2023-10-23T01:37:46.341Z,9.19
2023-10-23T01:40:13.593Z,9.15
2023-10-23T01:42:41.746Z,9.10
2023-10-23T01:45:09.685Z,9.04
2023-10-23T01:47:36.977Z,8.97
2023-10-23T01:50:04.145Z,8.89
2023-10-23T01:52:30.997Z,8.81
2023-10-23T01:54:59.941Z,8.74
2023-10-23T01:57:28.633Z,8.67
2023-10-23T01:59:56.999Z,8.63
2023-10-23T02:02:24.117Z,8.58
2023-10-23T02:04:50.934Z,8.54
2023-10-23T02:07:17.792Z,8.47
2023-10-23T02:09:45.629Z,8.41
2023-10-23T02:12:12.986Z,8.32
2023-10-23T02:14:40.071Z,8.24
2023-10-23T02:17:07.300Z,8.20
2023-10-23T02:19:36.228Z,8.15
2023-10-23T02:22:03.271Z,8.11
2023-10-23T02:24:30.214Z,8.08
2023-10-23T02:26:57.768Z,8.05
2023-10-23T02:29:24.712Z,8.00
2023-10-23T02:31:51.662Z,7.94
2023-10-23T02:34:18.819Z,7.89
2023-10-23T02:36:45.798Z,7.85
2023-10-23T02:39:12.934Z,7.81
2023-10-23T02:41:39.853Z,7.80
2023-10-23T02:44:06.833Z,7.77
2023-10-23T02:46:39.902Z,7.74
2023-10-23T02:49:06.974Z,7.67
2023-10-23T02:51:33.965Z,7.60
2023-10-23T02:54:01.040Z,7.53
2023-10-23T02:56:27.890Z,7.50
2023-10-23T02:58:54.949Z,7.48
2023-10-23T03:01:25.136Z,7.49
2023-10-23T03:03:53.133Z,7.49
2023-10-23T03:06:20.238Z,7.47
2023-10-23T03:08:47.200Z,7.45
2023-10-23T03:11:20.726Z,7.41
2023-10-23T03:14:10.645Z,7.37
2023-10-23T03:16:38.607Z,7.35
2023-10-23T03:19:05.713Z,7.35
2023-10-23T03:21:32.662Z,7.35
2023-10-23T03:23:59.666Z,7.34
2023-10-23T03:26:26.739Z,7.33
2023-10-23T03:28:53.706Z,7.30
2023-10-23T03:31:20.642Z,7.26
2023-10-23T03:33:47.527Z,7.23
2023-10-23T03:36:14.445Z,7.21
2023-10-23T03:38:41.472Z,7.21
2023-10-23T03:41:08.328Z,7.21
2023-10-23T03:43:35.276Z,7.21
2023-10-23T03:46:04.296Z,7.18
2023-10-23T03:48:31.553Z,7.15
2023-10-23T03:51:01.912Z,7.13
2023-10-23T03:53:29.168Z,7.10
2023-10-23T03:55:56.216Z,7.08
2023-10-23T03:58:23.078Z,7.06
2023-10-23T04:00:54.297Z,7.04
2023-10-23T04:03:21.533Z,7.01
2023-10-23T04:05:48.603Z,6.95
2023-10-23T04:08:15.509Z,6.92
2023-10-23T04:10:46.753Z,6.89
2023-10-23T04:13:14.789Z,6.87
2023-10-23T04:15:42.300Z,6.85
2023-10-23T04:18:09.227Z,6.84
2023-10-23T04:20:36.067Z,6.83
2023-10-23T04:23:03.145Z,6.81
2023-10-23T04:25:30.076Z,6.78
2023-10-23T04:27:57.052Z,6.77
2023-10-23T04:30:23.945Z,6.78
2023-10-23T04:32:50.871Z,6.78
2023-10-23T04:35:17.738Z,6.77
2023-10-23T04:37:44.789Z,6.76
2023-10-23T04:40:12.232Z,6.73
2023-10-23T04:42:39.161Z,6.71
2023-10-23T04:45:06.791Z,6.69
2023-10-23T04:47:33.637Z,6.69
2023-10-23T04:50:00.474Z,6.73
2023-10-23T04:52:27.281Z,6.77
2023-10-23T04:54:54.607Z,6.81
2023-10-23T04:57:21.487Z,6.82
2023-10-23T04:59:48.447Z,6.86
2023-10-23T05:02:15.307Z,6.91
2023-10-23T05:04:42.185Z,6.97
2023-10-23T05:07:09.241Z,7.02
2023-10-23T05:09:36.114Z,7.08
2023-10-23T05:12:02.985Z,7.09
2023-10-23T05:14:29.856Z,7.10
2023-10-23T05:16:56.730Z,7.12
2023-10-23T05:19:23.625Z,7.14
2023-10-23T05:21:50.526Z,7.17
2023-10-23T05:24:17.479Z,7.22
2023-10-23T05:26:44.533Z,7.31
2023-10-23T05:29:11.354Z,7.39
2023-10-23T05:31:38.181Z,7.51
2023-10-23T05:34:08.134Z,7.63
2023-10-23T05:36:35.146Z,7.72
2023-10-23T05:39:02.038Z,7.80
2023-10-23T05:41:28.908Z,7.90
2023-10-23T05:43:55.792Z,7.95
2023-10-23T05:46:24.053Z,7.96
2023-10-23T05:48:50.971Z,7.95
2023-10-23T05:51:17.872Z,7.94
2023-10-23T05:53:44.785Z,7.94
2023-10-23T05:56:11.630Z,7.96
2023-10-23T05:58:38.553Z,7.98
2023-10-23T06:01:07.074Z,7.99
2023-10-23T06:03:35.352Z,8.01
2023-10-23T06:06:02.729Z,8.00
2023-10-23T06:08:29.580Z,8.03
2023-10-23T06:10:56.502Z,8.06
2023-10-23T06:13:23.553Z,8.11
2023-10-23T06:15:50.669Z,8.15
2023-10-23T06:18:17.618Z,8.20
2023-10-23T06:20:45.891Z,8.24
2023-10-23T06:23:12.765Z,8.27
2023-10-23T06:25:41.021Z,8.31
2023-10-23T06:28:08.217Z,8.39
2023-10-23T06:30:37.558Z,8.45
2023-10-23T06:33:04.707Z,8.54
2023-10-23T06:35:31.635Z,8.62
2023-10-23T06:37:58.586Z,8.68
2023-10-23T06:40:25.533Z,8.73
2023-10-23T06:42:52.401Z,8.78
2023-10-23T06:45:19.362Z,8.87
2023-10-23T06:47:50.632Z,9.00
2023-10-23T06:50:18.657Z,9.13
2023-10-23T06:52:46.113Z,9.28
2023-10-23T06:55:13.814Z,9.43
2023-10-23T06:57:40.727Z,9.56
2023-10-23T07:00:08.240Z,9.67
2023-10-23T07:02:35.222Z,9.76
2023-10-23T07:05:02.821Z,9.86
2023-10-23T07:07:30.701Z,9.94
2023-10-23T07:10:02.051Z,10.05
2023-10-23T07:12:28.980Z,10.16
2023-10-23T07:14:55.965Z,10.26
2023-10-23T07:17:22.966Z,10.37
2023-10-23T07:19:50.129Z,10.47
2023-10-23T07:22:17.515Z,10.61
2023-10-23T07:24:44.422Z,10.75
2023-10-23T07:27:16.406Z,10.96
2023-10-23T07:29:45.139Z,11.25
2023-10-23T07:32:12.384Z,11.54
2023-10-23T07:34:39.199Z,11.70
2023-10-23T07:37:06.288Z,11.83
2023-10-23T07:39:35.596Z,11.91
2023-10-23T07:42:03.188Z,11.98
2023-10-23T07:44:30.104Z,12.04
2023-10-23T07:46:57.157Z,12.12
2023-10-23T07:49:24.740Z,12.19
2023-10-23T07:51:54.011Z,12.21
2023-10-23T07:54:21.738Z,12.21
2023-10-23T07:56:48.758Z,12.21
2023-10-23T07:59:15.688Z,12.23
2023-10-23T08:01:42.788Z,12.30
2023-10-23T08:04:10.152Z,12.41
2023-10-23T08:06:37.334Z,12.49
2023-10-23T08:09:05.121Z,12.59
2023-10-23T08:11:31.998Z,12.67
2023-10-23T08:13:59.748Z,12.74
2023-10-23T08:16:26.918Z,12.83
2023-10-23T08:18:54.056Z,12.95
2023-10-23T08:21:22.995Z,13.09
2023-10-23T08:23:58.097Z,13.18
2023-10-23T08:26:25.039Z,13.31
2023-10-23T08:29:01.744Z,13.50
2023-10-23T08:31:39.419Z,13.69
2023-10-23T08:34:08.979Z,13.93
2023-10-23T08:36:36.452Z,14.21
2023-10-23T08:39:04.557Z,14.40
2023-10-23T08:41:32.761Z,14.55
2023-10-23T08:44:00.148Z,14.71
2023-10-23T08:46:31.089Z,14.82
2023-10-23T08:48:58.538Z,14.93
2023-10-23T08:51:26.554Z,14.98
2023-10-23T08:54:11.138Z,15.03
2023-10-23T08:56:42.216Z,15.04
2023-10-23T08:59:11.587Z,14.99
2023-10-23T09:01:39.313Z,15.06
2023-10-23T09:04:08.143Z,15.10
2023-10-23T09:06:37.328Z,15.14
2023-10-23T09:09:06.688Z,15.20
2023-10-23T09:11:45.651Z,15.19
2023-10-23T09:14:25.017Z,15.20
2023-10-23T09:16:53.659Z,15.31
2023-10-23T09:19:40.215Z,15.45
2023-10-23T09:22:09.310Z,15.53
2023-10-23T09:24:37.179Z,15.56
2023-10-23T09:27:04.661Z,15.71
2023-10-23T09:29:32.105Z,15.84
2023-10-23T09:32:01.016Z,15.85
2023-10-23T09:34:30.329Z,15.88
2023-10-23T09:36:57.515Z,15.93
2023-10-23T09:39:24.870Z,16.04
2023-10-23T09:41:52.582Z,16.15
2023-10-23T09:44:19.501Z,16.36
2023-10-23T09:46:49.424Z,16.58
2023-10-23T09:49:17.947Z,16.71
2023-10-23T09:51:50.110Z,16.78
2023-10-23T09:54:21.102Z,16.93
2023-10-23T09:56:55.771Z,17.11
2023-10-23T09:59:41.986Z,17.34
2023-10-23T10:02:11.068Z,17.56
2023-10-23T10:04:52.718Z,17.71
2023-10-23T10:07:27.525Z,17.74
2023-10-23T10:09:55.879Z,17.77
2023-10-23T10:12:26.022Z,17.78
2023-10-23T10:14:55.196Z,17.67
2023-10-23T10:17:22.380Z,17.63
2023-10-23T10:19:50.948Z,17.68
2023-10-23T10:22:26.139Z,17.74
2023-10-23T10:24:53.828Z,17.85
2023-10-23T10:27:21.787Z,17.98
2023-10-23T10:29:48.804Z,18.06
2023-10-23T10:32:16.000Z,18.18
2023-10-23T10:34:55.906Z,18.33
2023-10-23T10:37:29.163Z,18.41
2023-10-23T10:39:56.239Z,18.41
2023-10-23T10:42:26.914Z,18.43
2023-10-23T10:44:55.179Z,18.41
2023-10-23T10:47:35.384Z,18.41
2023-10-23T10:50:02.270Z,18.48
2023-10-23T10:52:31.383Z,18.48
2023-10-23T10:55:01.935Z,18.54
2023-10-23T10:57:29.145Z,18.61
2023-10-23T10:59:57.212Z,18.75
2023-10-23T11:02:24.542Z,18.65
2023-10-23T11:04:51.862Z,18.62
2023-10-23T11:07:24.317Z,18.69
2023-10-23T11:09:51.789Z,18.77
2023-10-23T11:12:20.340Z,18.91
2023-10-23T11:14:48.515Z,19.00
2023-10-23T11:17:16.085Z,19.05
2023-10-23T11:19:44.530Z,19.12
2023-10-23T11:22:23.129Z,19.24
2023-10-23T11:24:50.366Z,19.39
2023-10-23T11:27:17.349Z,19.47
2023-10-23T11:29:47.045Z,19.46
2023-10-23T11:32:15.767Z,19.47
2023-10-23T11:34:43.805Z,19.50
2023-10-23T11:37:12.523Z,19.58
2023-10-23T11:39:43.584Z,19.71
2023-10-23T11:42:12.056Z,19.85
2023-10-23T11:44:41.644Z,19.95
2023-10-23T11:47:09.335Z,19.93
2023-10-23T11:49:36.550Z,19.86
2023-10-23T11:52:03.961Z,19.92
2023-10-23T11:54:31.268Z,19.87
2023-10-23T11:57:00.393Z,19.83
2023-10-23T11:59:27.868Z,19.78
2023-10-23T12:01:57.898Z,19.82
2023-10-23T12:04:25.221Z,19.84
2023-10-23T12:06:52.478Z,19.92
2023-10-23T12:09:19.669Z,20.16
2023-10-23T12:11:46.631Z,20.45
2023-10-23T12:14:13.618Z,20.91
2023-10-23T12:16:40.850Z,21.50
2023-10-23T12:19:10.920Z,21.85
2023-10-23T12:21:38.565Z,21.92
2023-10-23T12:24:07.878Z,22.09
2023-10-23T12:26:35.454Z,22.43
2023-10-23T12:29:06.661Z,22.69
2023-10-23T12:32:01.733Z,22.80
2023-10-23T12:34:21.228Z,23.01
2023-10-23T12:36:48.257Z,22.67
2023-10-23T12:39:15.294Z,22.84
2023-10-23T12:41:42.146Z,23.19
2023-10-23T12:44:08.950Z,23.61
2023-10-23T12:46:35.915Z,24.05
2023-10-23T12:49:03.246Z,24.40
2023-10-23T12:51:30.224Z,24.67
2023-10-23T12:53:57.152Z,24.67
2023-10-23T12:56:24.065Z,24.75
2023-10-23T12:58:50.908Z,24.98
2023-10-23T13:01:18.386Z,25.23
2023-10-23T13:03:45.296Z,25.38
2023-10-23T13:06:12.417Z,25.30
2023-10-23T13:08:39.326Z,25.31
2023-10-23T13:11:06.157Z,25.39
2023-10-23T13:13:33.038Z,25.40
2023-10-23T13:16:00.019Z,25.63
2023-10-23T13:18:26.924Z,25.80
2023-10-23T13:21:30.768Z,25.99
2023-10-23T13:23:42.234Z,26.21
2023-10-23T13:26:13.870Z,26.32
2023-10-23T13:28:41.555Z,26.23
2023-10-23T13:31:09.162Z,25.93
2023-10-23T13:33:36.244Z,25.15
2023-10-23T13:36:03.529Z,24.62
2023-10-23T13:38:31.033Z,24.50
2023-10-23T13:40:58.027Z,24.57
2023-10-23T13:43:26.577Z,24.67
2023-10-23T13:45:53.737Z,24.58
2023-10-23T13:48:20.751Z,24.43
2023-10-23T13:50:51.260Z,24.38
2023-10-23T13:53:19.148Z,24.42
2023-10-23T13:55:46.758Z,24.37
2023-10-23T13:58:13.804Z,24.44
2023-10-23T14:00:41.248Z,24.46
2023-10-23T14:03:10.092Z,24.28
2023-10-23T14:05:38.608Z,24.07
2023-10-23T14:08:05.764Z,23.88
2023-10-23T14:10:33.344Z,23.72
2023-10-23T14:13:00.344Z,23.56
2023-10-23T14:15:28.032Z,23.35
2023-10-23T14:17:55.102Z,23.08
2023-10-23T14:20:22.306Z,22.80
2023-10-23T14:22:49.206Z,22.58
2023-10-23T14:25:16.233Z,22.34
2023-10-23T14:27:43.235Z,22.20
2023-10-23T14:30:10.431Z,22.07
2023-10-23T14:32:37.901Z,21.99
2023-10-23T14:35:05.211Z,21.92
2023-10-23T14:37:32.554Z,21.81
2023-10-23T14:39:59.725Z,21.63
2023-10-23T14:42:27.130Z,21.37
2023-10-23T14:44:54.112Z,21.08
2023-10-23T14:47:21.045Z,20.75
2023-10-23T14:49:47.957Z,20.39
2023-10-23T14:52:14.948Z,20.02
2023-10-23T14:54:42.838Z,19.64
2023-10-23T14:57:09.892Z,19.26
2023-10-23T14:59:36.805Z,18.89
2023-10-23T15:02:03.872Z,18.53
2023-10-23T15:04:32.674Z,18.21
2023-10-23T15:07:00.868Z,17.89
2023-10-23T15:09:27.810Z,17.60
2023-10-23T15:11:54.654Z,17.31
2023-10-23T15:14:21.557Z,17.01
2023-10-23T15:16:48.536Z,16.73
2023-10-23T15:19:15.791Z,16.41
2023-10-23T15:21:42.913Z,16.12
2023-10-23T15:24:11.707Z,15.84
2023-10-23T15:26:39.157Z,15.56
2023-10-23T15:29:06.088Z,15.30
2023-10-23T15:31:33.140Z,15.00
2023-10-23T15:34:00.204Z,14.78
2023-10-23T15:36:27.111Z,14.57
2023-10-23T15:38:54.134Z,14.34
2023-10-23T15:41:21.013Z,14.14
2023-10-23T15:43:57.187Z,13.96
2023-10-23T15:46:24.285Z,13.75
2023-10-23T15:48:52.322Z,13.54
2023-10-23T15:51:19.218Z,13.32
2023-10-23T15:53:46.088Z,13.13
2023-10-23T15:56:12.955Z,12.95
2023-10-23T15:58:39.926Z,12.79
2023-10-23T16:01:08.257Z,12.63
2023-10-23T16:03:36.954Z,12.47
2023-10-23T16:06:07.653Z,12.30
2023-10-23T16:08:36.649Z,12.13
2023-10-23T16:11:04.345Z,11.96
2023-10-23T16:13:38.380Z,11.78
2023-10-23T16:16:14.376Z,11.60
2023-10-23T16:18:44.522Z,11.44
2023-10-23T16:21:14.264Z,11.32
2023-10-23T16:23:41.479Z,11.22
2023-10-23T16:26:08.552Z,11.09
2023-10-23T16:28:36.284Z,10.94
2023-10-23T16:31:03.367Z,10.79
2023-10-23T16:33:30.371Z,10.66
2023-10-23T16:35:57.239Z,10.53
2023-10-23T16:38:24.069Z,10.42
2023-10-23T16:40:51.181Z,10.34
2023-10-23T16:43:19.199Z,10.28
2023-10-23T16:45:46.345Z,10.24
2023-10-23T16:48:13.214Z,10.18
2023-10-23T16:50:40.072Z,10.13
2023-10-23T16:53:06.982Z,10.07
2023-10-23T16:55:33.986Z,9.98
2023-10-23T16:58:01.009Z,9.87
2023-10-23T17:00:28.496Z,9.72
2023-10-23T17:02:55.978Z,9.61
2023-10-23T17:05:23.054Z,9.55
2023-10-23T17:07:49.881Z,9.52
2023-10-23T17:10:18.244Z,9.53
2023-10-23T17:12:45.196Z,9.54
2023-10-23T17:15:12.090Z,9.55
2023-10-23T17:17:39.322Z,9.54
2023-10-23T17:20:07.482Z,9.51
2023-10-23T17:22:36.571Z,9.45
2023-10-23T17:25:03.934Z,9.38
2023-10-23T17:27:30.836Z,9.26
2023-10-23T17:29:57.784Z,9.14
2023-10-23T17:32:24.663Z,9.05
2023-10-23T17:34:51.541Z,9.00
2023-10-23T17:37:18.446Z,8.96
2023-10-23T17:39:45.532Z,8.92
2023-10-23T17:42:12.403Z,8.88
2023-10-23T17:44:39.245Z,8.82
2023-10-23T17:47:06.376Z,8.71
2023-10-23T17:49:33.362Z,8.64
2023-10-23T17:52:00.356Z,8.58
2023-10-23T17:54:27.212Z,8.57
2023-10-23T17:56:54.064Z,8.59
2023-10-23T17:59:21.139Z,8.60
2023-10-23T18:01:48.194Z,8.62
2023-10-23T18:04:15.093Z,8.62
2023-10-23T18:06:41.996Z,8.61
2023-10-23T18:09:10.627Z,8.54
2023-10-23T18:11:39.635Z,8.50
2023-10-23T18:14:08.966Z,8.49
2023-10-23T18:16:37.103Z,8.51
2023-10-23T18:19:04.870Z,8.52
2023-10-23T18:21:31.817Z,8.52
2023-10-23T18:23:58.743Z,8.49
2023-10-23T18:26:26.087Z,8.44
2023-10-23T18:28:53.375Z,8.35
2023-10-23T18:31:21.131Z,8.25
2023-10-23T18:33:48.096Z,8.15
2023-10-23T18:36:17.356Z,8.08
2023-10-23T18:38:46.189Z,8.06
2023-10-23T18:41:17.674Z,8.04
2023-10-23T18:43:46.795Z,8.03
2023-10-23T18:46:14.647Z,8.02
2023-10-23T18:48:42.219Z,8.01
2023-10-23T18:51:12.883Z,7.99
2023-10-23T18:53:42.228Z,7.96
2023-10-23T18:56:09.229Z,7.91
2023-10-23T18:58:36.615Z,7.86
2023-10-23T19:01:03.848Z,7.81
2023-10-23T19:03:31.715Z,7.76
2023-10-23T19:05:58.883Z,7.71
2023-10-23T19:08:29.386Z,7.69
2023-10-23T19:10:56.523Z,7.67
2023-10-23T19:13:23.537Z,7.64
2023-10-23T19:15:59.560Z,7.58
2023-10-23T19:18:30.320Z,7.51
2023-10-23T19:21:00.706Z,7.47
2023-10-23T19:23:27.840Z,7.44
2023-10-23T19:25:54.820Z,7.42
2023-10-23T19:28:22.937Z,7.39
2023-10-23T19:30:50.008Z,7.35
2023-10-23T19:33:17.331Z,7.30
2023-10-23T19:35:45.044Z,7.21
2023-10-23T19:38:13.490Z,7.15
2023-10-23T19:40:42.569Z,7.11
2023-10-23T19:43:15.793Z,7.08
2023-10-23T19:45:44.885Z,7.05
2023-10-23T19:48:13.478Z,7.03
2023-10-23T19:50:46.067Z,7.00
2023-10-23T19:53:16.785Z,6.94
2023-10-23T19:55:46.723Z,6.88
2023-10-23T19:58:15.610Z,6.82
2023-10-23T20:00:42.554Z,6.77
2023-10-23T20:03:09.496Z,6.74
2023-10-23T20:05:36.402Z,6.68
2023-10-23T20:08:03.311Z,6.62
2023-10-23T20:10:30.522Z,6.58
2023-10-23T20:13:00.185Z,6.52
2023-10-23T20:15:30.500Z,6.44
2023-10-23T20:17:57.560Z,6.37
2023-10-23T20:20:26.804Z,6.32
2023-10-23T20:22:54.004Z,6.30
2023-10-23T20:25:21.028Z,6.28
2023-10-23T20:27:48.172Z,6.23
2023-10-23T20:30:15.200Z,6.17
2023-10-23T20:32:42.237Z,6.14
2023-10-23T20:35:09.645Z,6.08
2023-10-23T20:37:36.990Z,6.03
2023-10-23T20:40:05.136Z,6.02
2023-10-23T20:42:37.216Z,6.00
2023-10-23T20:45:06.483Z,6.02
2023-10-23T20:47:34.739Z,6.04
2023-10-23T20:50:02.662Z,6.08
2023-10-23T20:52:31.224Z,6.09
2023-10-23T20:54:58.394Z,6.06
2023-10-23T20:57:25.604Z,6.03
2023-10-23T20:59:52.828Z,6.01
2023-10-23T21:02:19.735Z,6.01
2023-10-23T21:04:46.649Z,6.02
2023-10-23T21:07:13.880Z,6.02
2023-10-23T21:09:41.299Z,6.01
2023-10-23T21:12:08.439Z,5.97
2023-10-23T21:14:46.743Z,5.94
2023-10-23T21:17:15.204Z,5.88
2023-10-23T21:19:42.451Z,5.78
2023-10-23T21:22:09.626Z,5.70
2023-10-23T21:24:36.489Z,5.64
2023-10-23T21:27:05.039Z,5.62
2023-10-23T21:29:32.133Z,5.61
2023-10-23T21:32:00.934Z,5.63
2023-10-23T21:34:28.001Z,5.64
2023-10-23T21:36:55.253Z,5.63
2023-10-23T21:39:22.117Z,5.60
2023-10-23T21:41:48.980Z,5.59
2023-10-23T21:44:16.032Z,5.60
2023-10-23T21:46:43.073Z,5.62
2023-10-23T21:49:11.654Z,5.63
2023-10-23T21:51:39.367Z,5.65
2023-10-23T21:54:07.131Z,5.68
2023-10-23T21:57:18.857Z,5.69
2023-10-23T21:59:22.815Z,5.68
2023-10-23T22:01:53.440Z,5.68
2023-10-23T22:04:21.263Z,5.70
2023-10-23T22:06:48.517Z,5.74
2023-10-23T22:09:16.615Z,5.80
2023-10-23T22:11:44.516Z,5.84
2023-10-23T22:14:11.887Z,5.86
2023-10-23T22:16:39.983Z,5.91
2023-10-23T22:19:07.064Z,5.90
2023-10-23T22:21:34.755Z,5.89
2023-10-23T22:24:01.625Z,5.91
2023-10-23T22:26:32.851Z,5.93
2023-10-23T22:29:00.622Z,5.97
2023-10-23T22:31:27.810Z,5.97
2023-10-23T22:33:55.204Z,5.96
2023-10-23T22:36:22.260Z,5.96
2023-10-23T22:38:49.619Z,5.97
2023-10-23T22:41:17.203Z,5.96
2023-10-23T22:43:44.143Z,5.92
2023-10-23T22:46:11.186Z,5.86
2023-10-23T22:48:38.140Z,5.84
2023-10-23T22:51:05.383Z,5.84
2023-10-23T22:53:34.102Z,5.83
2023-10-23T22:56:03.273Z,5.82
2023-10-23T22:58:32.404Z,5.78
2023-10-23T23:01:00.510Z,5.73
2023-10-23T23:03:28.029Z,5.69
2023-10-23T23:05:58.413Z,5.65
2023-10-23T23:08:27.299Z,5.65
2023-10-23T23:10:54.326Z,5.65
2023-10-23T23:13:21.434Z,5.64
2023-10-23T23:15:49.329Z,5.62
2023-10-23T23:18:20.166Z,5.57
2023-10-23T23:20:48.640Z,5.48
2023-10-23T23:23:15.475Z,5.43
2023-10-23T23:25:42.369Z,5.42
2023-10-23T23:28:09.298Z,5.41
2023-10-23T23:30:36.269Z,5.39
2023-10-23T23:33:03.319Z,5.37
2023-10-23T23:35:30.148Z,5.36
2023-10-23T23:37:57.004Z,5.34
2023-10-23T23:40:23.939Z,5.31
2023-10-23T23:42:50.848Z,5.26
2023-10-23T23:45:17.819Z,5.23
2023-10-23T23:47:44.814Z,5.20
2023-10-23T23:50:11.821Z,5.19
2023-10-23T23:52:38.693Z,5.20
2023-10-23T23:55:06.569Z,5.21
2023-10-23T23:57:35.151Z,5.20
